Time;durP1;ratioP1;P1;durP2;ratioP2;P2;SDS_P1;SDS_P2;PMS_P1;PMS_P2;Temp;Humidity;BMP_temperature;BMP_pressure;BME280_temperature;BME280_humidity;BME280_pressure;Samples;Min_cycle;Max_cycle;Signal;HPM_P1;HPM_P2
2022/04/26 03:38:12;;;;;;;12.07;6.90;;;;;;;17.41;44.08;101216.66;5034743;28;20024;-64
2022/04/26 03:40:37;;;;;;;14.27;6.03;;;;;;;17.39;44.79;101226.81;5034075;28;20025;-65
2022/04/26 03:43:03;;;;;;;13.02;6.13;;;;;;;17.38;44.04;101223.25;5034300;28;20068;-65
2022/04/26 03:45:28;;;;;;;19.77;4.65;;;;;;;17.38;43.24;101222.41;5033664;28;20120;-65
2022/04/26 03:47:53;;;;;;;7.35;4.18;;;;;;;17.36;44.21;101227.13;5032394;28;20029;-65
2022/04/26 03:50:19;;;;;;;7.00;4.10;;;;;;;17.33;43.84;101235.59;5034022;28;20483;-65
2022/04/26 03:52:44;;;;;;;5.55;3.88;;;;;;;17.29;44.17;101226.06;5033886;28;20454;-65
2022/04/26 03:55:10;;;;;;;4.97;3.30;;;;;;;17.26;42.65;101229.97;5033980;28;20109;-65
2022/04/26 03:57:35;;;;;;;5.72;3.28;;;;;;;17.22;43.69;101222.34;5033110;28;20387;-66
2022/04/26 04:00:00;;;;;;;5.40;3.40;;;;;;;17.19;42.88;101233.50;5033605;28;20040;-66
2022/04/26 04:02:26;;;;;;;8.15;2.90;;;;;;;17.17;43.98;101238.22;5033546;28;20364;-65
2022/04/26 04:04:51;;;;;;;4.82;3.33;;;;;;;17.13;43.76;101242.25;5034156;28;20586;-65
2022/04/26 04:07:16;;;;;;;6.32;3.30;;;;;;;17.11;43.35;101241.56;5033540;28;20120;-65
2022/04/26 04:09:42;;;;;;;6.03;3.20;;;;;;;17.12;42.48;101243.25;5033893;28;20029;-65
2022/04/26 04:12:08;;;;;;;7.78;3.30;;;;;;;17.09;42.36;101243.56;5033651;28;20036;-66
2022/04/26 04:14:33;;;;;;;8.70;3.13;;;;;;;17.10;43.28;101245.28;5033567;28;20033;-65
2022/04/26 04:16:58;;;;;;;4.95;3.03;;;;;;;17.06;42.61;101247.44;5033598;28;20524;-65
2022/04/26 04:19:25;;;;;;;7.97;3.20;;;;;;;17.03;42.25;101255.88;5033513;28;20525;-64
2022/04/26 04:21:51;;;;;;;4.35;2.85;;;;;;;16.99;43.38;101256.38;5033167;28;20123;-66
2022/04/26 04:24:17;;;;;;;3.33;2.55;;;;;;;16.94;43.69;101262.28;5033540;28;20021;-65
2022/04/26 04:26:43;;;;;;;4.90;3.05;;;;;;;16.91;42.71;101262.59;5033645;28;20029;-65
2022/04/26 04:29:08;;;;;;;4.40;2.78;;;;;;;16.85;43.23;101258.66;5033409;28;20033;-66
2022/04/26 04:31:34;;;;;;;5.55;3.08;;;;;;;16.82;43.80;101263.53;5033572;28;20100;-65
2022/04/26 04:34:02;;;;;;;9.05;3.45;;;;;;;16.77;42.31;101271.28;5033289;28;20028;-65
2022/04/26 04:36:28;;;;;;;11.40;3.67;;;;;;;16.68;42.30;101278.50;5033201;28;20029;-66
2022/04/26 04:38:54;;;;;;;4.68;2.85;;;;;;;16.59;43.30;101282.13;5015411;28;20555;-66
2022/04/26 04:41:19;;;;;;;7.88;3.83;;;;;;;16.51;43.89;101287.44;5033651;28;20025;-65
2022/04/26 04:43:45;;;;;;;4.75;3.30;;;;;;;16.49;42.93;101289.47;5033282;28;20541;-66
2022/04/26 04:46:11;;;;;;;7.40;3.45;;;;;;;16.45;43.69;101292.63;5033226;28;20554;-65
2022/04/26 04:48:36;;;;;;;5.93;3.53;;;;;;;16.43;42.90;101297.34;5033098;28;20029;-65
2022/04/26 04:51:01;;;;;;;7.55;2.83;;;;;;;16.41;44.70;101302.94;5033368;28;20040;-66
2022/04/26 04:53:27;;;;;;;6.97;3.58;;;;;;;16.40;43.08;101301.22;5033081;28;20390;-66
2022/04/26 04:55:52;;;;;;;6.53;3.38;;;;;;;16.41;44.10;101300.22;5033685;28;20021;-66
2022/04/26 04:58:18;;;;;;;5.97;3.53;;;;;;;16.40;44.52;101301.22;5018633;28;20432;-66
2022/04/26 05:00:43;;;;;;;6.88;3.50;;;;;;;16.45;44.49;101308.84;5037020;28;20390;-65
2022/04/26 05:03:09;;;;;;;8.50;3.60;;;;;;;16.48;43.63;101319.34;5037064;28;20021;-65
2022/04/26 05:05:35;;;;;;;6.78;3.33;;;;;;;16.50;44.55;101318.19;5036907;28;20029;-65
2022/04/26 05:08:00;;;;;;;2.88;2.42;;;;;;;16.50;44.28;101323.59;5037070;28;20040;-65
2022/04/26 05:10:26;;;;;;;17.98;3.42;;;;;;;16.52;44.09;101328.88;5036701;28;20021;-65
2022/04/26 05:12:51;;;;;;;5.03;3.00;;;;;;;16.54;42.85;101327.75;5036534;28;20034;-66
2022/04/26 05:15:17;;;;;;;6.05;2.90;;;;;;;16.56;43.67;101328.44;5036745;28;20360;-66
2022/04/26 05:17:42;;;;;;;7.55;3.28;;;;;;;16.57;44.50;101319.31;5036706;28;20120;-66
2022/04/26 05:20:08;;;;;;;10.80;3.20;;;;;;;16.61;43.04;101328.81;5036044;28;20116;-65
2022/04/26 05:24:53;;;;;;;7.35;3.40;;;;;;;16.63;43.12;101324.13;5018918;28;20529;-65
2022/04/26 05:25:19;;;;;;;5.43;3.25;;;;;;;16.67;43.04;101328.19;5036366;28;20052;-65
2022/04/26 05:27:45;;;;;;;6.72;3.55;;;;;;;16.70;43.15;101330.59;5036740;28;20512;-65
2022/04/26 05:30:10;;;;;;;6.93;2.75;;;;;;;16.73;43.50;101332.97;5037007;28;20471;-66
2022/04/26 05:32:36;;;;;;;4.82;3.15;;;;;;;16.77;43.48;101337.09;5036773;28;20021;-66
2022/04/26 05:35:03;;;;;;;5.70;3.20;;;;;;;16.80;44.17;101336.78;5036714;28;20083;-66
2022/04/26 05:37:31;;;;;;;8.52;3.15;;;;;;;16.83;43.11;101339.13;5036593;28;20072;-65
2022/04/26 05:39:57;;;;;;;8.60;3.42;;;;;;;16.84;42.83;101338.13;5035271;28;20036;-64
2022/04/26 05:42:22;;;;;;;6.78;3.42;;;;;;;16.87;44.12;101337.84;5036276;28;20033;-65
2022/04/26 05:44:48;;;;;;;8.52;3.88;;;;;;;16.89;42.67;101341.22;5036178;28;20037;-66
2022/04/26 05:47:13;;;;;;;5.68;3.53;;;;;;;16.89;43.46;101345.78;5036163;28;20433;-66
2022/04/26 05:49:39;;;;;;;5.22;3.28;;;;;;;16.88;43.09;101342.25;5036274;28;20466;-65
2022/04/26 05:52:05;;;;;;;6.35;2.97;;;;;;;16.86;43.02;101346.13;5036218;28;20041;-65
2022/04/26 05:54:30;;;;;;;6.20;3.40;;;;;;;16.84;43.61;101346.25;5035687;28;20070;-66
2022/04/26 05:56:56;;;;;;;5.40;3.53;;;;;;;16.86;43.97;101357.75;5035880;28;20116;-65
2022/04/26 05:59:22;;;;;;;6.43;3.08;;;;;;;16.89;43.72;101349.34;5036127;28;20026;-65
2022/04/26 06:01:48;;;;;;;6.10;2.92;;;;;;;16.94;42.39;101353.44;5035983;28;20029;-66
2022/04/26 06:04:13;;;;;;;5.68;3.65;;;;;;;16.95;43.59;101349.72;5035816;28;20021;-65
2022/04/26 06:06:39;;;;;;;6.78;3.90;;;;;;;17.00;43.47;101353.66;5034671;28;20128;-65
2022/04/26 06:09:05;;;;;;;5.93;2.92;;;;;;;17.06;43.31;101363.00;5036591;28;20052;-65
2022/04/26 06:11:31;;;;;;;9.70;3.60;;;;;;;17.13;43.75;101358.66;5036039;28;20029;-65
2022/04/26 06:13:56;;;;;;;5.68;2.80;;;;;;;17.20;43.19;101351.59;5038632;28;20022;-66
2022/04/26 06:16:22;;;;;;;6.78;3.28;;;;;;;17.22;43.50;101358.56;5034790;28;20103;-65
2022/04/26 06:18:47;;;;;;;13.13;3.60;;;;;;;17.22;43.80;101363.13;5022645;28;20025;-65
2022/04/26 06:21:13;;;;;;;5.78;3.30;;;;;;;17.23;42.40;101364.81;5044858;28;20564;-64
2022/04/26 06:23:39;;;;;;;11.05;3.78;;;;;;;17.23;42.56;101370.22;5042303;28;20040;-66
2022/04/26 06:26:05;;;;;;;6.85;3.53;;;;;;;17.18;43.02;101362.59;5040580;28;20491;-65
2022/04/26 06:28:30;;;;;;;9.93;3.63;;;;;;;17.18;43.88;101368.00;5042045;28;20030;-66
2022/04/26 06:30:56;;;;;;;6.38;2.92;;;;;;;17.20;43.46;101375.94;5042106;28;20025;-65
2022/04/26 06:33:21;;;;;;;7.38;3.35;;;;;;;17.20;42.58;101370.53;5042516;28;20037;-66
2022/04/26 06:35:46;;;;;;;7.53;4.00;;;;;;;17.20;42.32;101365.13;5039108;28;20021;-65
2022/04/26 06:38:12;;;;;;;7.47;3.75;;;;;;;17.19;43.03;101379.69;5040636;28;20037;-64
2022/04/26 06:40:37;;;;;;;3.90;2.95;;;;;;;17.16;43.42;101375.44;5045930;28;20083;-65
2022/04/26 06:43:03;;;;;;;9.30;3.75;;;;;;;17.16;42.41;101380.00;5042906;28;20387;-66
2022/04/26 06:45:31;;;;;;;5.97;3.17;;;;;;;17.19;42.50;101382.41;5035174;28;20029;-65
2022/04/26 06:47:56;;;;;;;7.07;3.72;;;;;;;17.20;42.33;101381.38;5034935;28;20483;-65
2022/04/26 06:50:22;;;;;;;6.20;3.50;;;;;;;17.22;43.33;101384.78;5054807;28;20075;-65
2022/04/26 06:52:48;;;;;;;9.27;4.20;;;;;;;17.24;42.43;101380.06;5054830;28;20025;-65
2022/04/26 06:55:13;;;;;;;7.85;3.83;;;;;;;17.25;43.70;101382.59;5054707;28;20032;-66
2022/04/26 06:57:39;;;;;;;7.25;3.40;;;;;;;17.28;42.22;101382.28;5054548;28;20060;-64
2022/04/26 07:00:09;;;;;;;7.22;3.92;;;;;;;17.30;43.54;101383.00;5054553;28;20024;-65
2022/04/26 07:02:34;;;;;;;12.77;4.50;;;;;;;17.30;42.17;101387.56;5054613;28;20138;-66
2022/04/26 07:05:00;;;;;;;6.70;3.72;;;;;;;17.32;43.36;101393.66;5054365;28;20056;-65
2022/04/26 07:07:25;;;;;;;6.38;4.07;;;;;;;17.36;43.01;101393.16;5054205;28;20036;-66
2022/04/26 07:09:50;;;;;;;8.07;3.47;;;;;;;17.41;43.29;101390.00;5054514;28;20029;-65
2022/04/26 07:12:16;;;;;;;6.35;3.70;;;;;;;17.43;42.49;101396.09;5024073;28;20026;-65
2022/04/26 07:14:42;;;;;;;11.73;4.25;;;;;;;17.45;42.83;101407.59;5034256;28;20047;-65
2022/04/26 07:17:07;;;;;;;8.52;4.10;;;;;;;17.42;43.81;101399.78;5034437;28;20078;-66
2022/04/26 07:19:36;;;;;;;5.45;3.63;;;;;;;17.37;43.18;101404.84;5034640;28;20021;-65
2022/04/26 07:22:05;;;;;;;8.35;4.68;;;;;;;17.33;42.38;101403.47;5015586;28;20399;-66
2022/04/26 07:24:31;;;;;;;8.05;4.20;;;;;;;17.35;42.78;101407.72;5033995;28;20025;-64
2022/04/26 07:26:56;;;;;;;10.63;4.43;;;;;;;17.42;43.94;101407.91;5033909;28;20018;-64
2022/04/26 07:29:22;;;;;;;7.88;4.63;;;;;;;17.49;43.45;101409.00;5034235;28;20036;-65
2022/04/26 07:31:47;;;;;;;10.18;4.60;;;;;;;17.51;43.05;101409.69;5034104;28;20091;-66
2022/04/26 07:34:22;;;;;;;6.93;5.07;;;;;;;17.51;42.61;101411.53;5034017;28;20021;-66
2022/04/26 07:36:54;;;;;;;7.88;5.13;;;;;;;17.51;42.70;101417.81;5017910;28;20226;-65
2022/04/26 07:39:19;;;;;;;17.97;4.97;;;;;;;17.53;42.73;101415.81;5033919;28;20056;-65
2022/04/26 07:41:46;;;;;;;10.90;5.68;;;;;;;17.57;42.86;101421.78;5034176;28;20018;-65
2022/04/26 07:44:12;;;;;;;8.45;5.32;;;;;;;17.59;42.57;101425.19;5033903;28;20056;-66
2022/04/26 07:46:38;;;;;;;9.98;5.25;;;;;;;17.64;44.03;101425.56;5033694;28;20072;-66
2022/04/26 07:49:07;;;;;;;11.70;5.15;;;;;;;17.68;44.09;101429.63;5033768;28;20060;-66
2022/04/26 07:51:32;;;;;;;8.70;5.00;;;;;;;17.73;43.31;101430.00;5033601;28;20075;-65
2022/04/26 07:53:59;;;;;;;9.10;5.25;;;;;;;17.74;43.31;101424.44;5033634;28;20037;-65
2022/04/26 07:56:27;;;;;;;14.05;5.60;;;;;;;17.75;43.51;101442.41;5033567;28;20029;-65
2022/04/26 07:58:53;;;;;;;9.00;5.47;;;;;;;17.75;43.03;101441.53;5015895;28;20022;-65
2022/04/26 08:01:18;;;;;;;11.23;5.30;;;;;;;17.71;43.35;101451.00;5033978;28;20041;-64
2022/04/26 08:03:43;;;;;;;9.93;5.53;;;;;;;17.67;43.27;101455.88;5033732;28;20438;-65
2022/04/26 08:06:09;;;;;;;13.98;5.22;;;;;;;17.68;43.29;101452.16;5033546;28;20034;-66
2022/04/26 08:08:34;;;;;;;10.05;6.03;;;;;;;17.73;42.25;101460.66;5033667;28;20455;-65
2022/04/26 08:11:01;;;;;;;12.07;6.10;;;;;;;17.76;42.66;101457.63;5033864;28;20044;-65
2022/04/26 08:13:27;;;;;;;10.68;5.90;;;;;;;17.78;43.58;101461.03;5033598;28;20021;-66
2022/04/26 08:15:53;;;;;;;7.45;4.97;;;;;;;17.81;43.51;101463.41;5015540;28;20435;-65
2022/04/26 08:18:18;;;;;;;8.95;5.93;;;;;;;17.84;43.01;101467.66;5033254;28;20060;-65
2022/04/26 08:20:45;;;;;;;13.30;6.55;;;;;;;17.85;43.01;101472.94;5015985;28;20045;-65
2022/04/26 08:23:11;;;;;;;11.25;5.22;;;;;;;17.83;43.55;101482.25;5033556;28;20054;-66
2022/04/26 08:28:20;;;;;;;11.35;5.43;;;;;;;17.82;43.68;101481.38;5033204;28;20033;-66
2022/04/26 08:30:46;;;;;;;9.65;5.47;;;;;;;17.83;43.51;101480.38;5032761;28;20029;-65
2022/04/26 08:33:12;;;;;;;12.98;6.18;;;;;;;17.88;43.54;101488.88;5036018;28;20475;-65
2022/04/26 08:35:37;;;;;;;13.90;5.93;;;;;;;17.92;43.60;101489.41;5019729;28;20044;-66
2022/04/26 08:38:02;;;;;;;13.02;6.05;;;;;;;17.94;43.45;101496.38;5037715;28;20535;-65
2022/04/26 08:40:28;;;;;;;10.10;5.68;;;;;;;17.98;43.31;101499.59;5037562;28;20041;-65
2022/04/26 08:42:53;;;;;;;13.05;5.95;;;;;;;18.04;43.42;101497.09;5019927;28;20502;-64
2022/04/26 08:45:20;;;;;;;19.70;6.35;;;;;;;18.06;42.84;101496.09;5048481;28;20427;-65
2022/04/26 08:53:19;;;;;;;10.05;5.60;;;;;;;18.16;43.59;101510.38;5042109;28;20112;-65
2022/04/26 08:55:47;;;;;;;11.45;6.03;;;;;;;18.23;42.71;101509.56;5040587;28;20035;-65
2022/04/26 08:58:14;;;;;;;10.93;6.00;;;;;;;18.31;42.14;101508.78;5057502;28;20021;-65
2022/04/26 09:00:42;;;;;;;10.73;6.10;;;;;;;18.41;42.68;101514.91;5057400;28;20028;-64
2022/04/26 09:03:08;;;;;;;14.18;5.97;;;;;;;18.43;42.54;101519.16;5040226;28;20025;-65
2022/04/26 09:05:34;;;;;;;14.10;6.63;;;;;;;18.46;42.32;101523.41;5037164;28;20505;-65
2022/04/26 09:07:59;;;;;;;10.25;6.78;;;;;;;18.50;42.78;101524.81;5037241;28;20032;-65
2022/04/26 09:10:26;;;;;;;10.35;5.70;;;;;;;18.54;42.90;101518.91;5037423;28;20029;-65
2022/04/26 09:13:09;;;;;;;10.05;6.22;;;;;;;18.58;42.19;101525.72;5019746;28;20036;-65
2022/04/26 09:15:38;;;;;;;12.52;6.50;;;;;;;18.64;42.45;101526.91;5037080;28;20124;-65
2022/04/26 09:18:22;;;;;;;9.57;6.15;;;;;;;18.68;43.17;101522.00;5037095;28;20021;-65
2022/04/26 09:21:04;;;;;;;16.75;6.38;;;;;;;18.77;42.58;101529.16;5037675;28;20045;-65
2022/04/26 09:23:30;;;;;;;12.50;6.13;;;;;;;18.83;42.43;101536.63;5036940;28;20073;-65
2022/04/26 09:25:58;;;;;;;16.77;5.85;;;;;;;18.89;42.23;101531.41;5018934;28;20052;-66
2022/04/26 09:28:29;;;;;;;12.20;6.25;;;;;;;18.93;42.26;101532.75;5037106;28;20430;-65
2022/04/26 09:30:55;;;;;;;18.20;6.00;;;;;;;18.99;42.36;101529.38;5036972;28;20586;-66
2022/04/26 09:33:30;;;;;;;11.38;7.03;;;;;;;19.10;42.55;101533.63;5018924;28;20022;-65
2022/04/26 09:36:10;;;;;;;11.80;6.50;;;;;;;19.16;41.97;101536.53;5018783;28;20022;-64
2022/04/26 09:38:39;;;;;;;10.73;6.25;;;;;;;19.24;41.64;101535.69;5036042;28;20056;-66
2022/04/26 09:41:08;;;;;;;11.35;6.50;;;;;;;19.34;41.55;101535.53;5035975;28;20056;-66
2022/04/26 09:43:34;;;;;;;10.65;5.90;;;;;;;19.46;41.95;101528.78;5035043;28;20066;-66
2022/04/26 09:46:00;;;;;;;10.75;6.47;;;;;;;19.56;41.42;101541.19;5035974;28;20060;-66
2022/04/26 09:48:29;;;;;;;11.50;6.30;;;;;;;19.64;42.13;101537.63;5035481;28;20064;-65
2022/04/26 09:50:57;;;;;;;12.73;5.68;;;;;;;19.71;41.33;101541.34;5034085;28;20048;-65
2022/04/26 09:53:22;;;;;;;10.02;6.05;;;;;;;19.82;41.40;101535.56;5041401;28;20017;-65
2022/04/26 09:55:48;;;;;;;13.60;6.78;;;;;;;20.31;40.77;101533.63;5041321;28;20163;-65
2022/04/26 09:58:17;;;;;;;8.40;5.82;;;;;;;21.49;38.71;101527.88;5043000;28;20032;-66
2022/04/26 10:00:44;;;;;;;9.68;5.22;;;;;;;23.65;36.80;101524.47;5044943;28;20067;-65
2022/04/26 10:03:12;;;;;;;8.00;5.60;;;;;;;23.05;38.18;101527.66;5035595;28;20104;-65
2022/04/26 10:05:39;;;;;;;8.57;6.22;;;;;;;23.50;38.00;101524.59;5040010;28;20030;-65
2022/04/26 10:08:05;;;;;;;10.65;6.45;;;;;;;23.34;37.65;101515.78;5036975;28;20033;-65
2022/04/26 10:10:31;;;;;;;11.13;5.93;;;;;;;24.00;37.73;101522.66;5036555;28;20422;-64
2022/04/26 10:15:41;;;;;;;7.95;5.53;;;;;;;25.05;36.45;101513.13;5041063;28;20500;-65
2022/04/26 10:18:45;;;;;;;8.85;5.18;;;;;;;25.89;35.73;101511.53;5039211;28;20017;-64
2022/04/26 10:21:22;;;;;;;10.68;5.80;;;;;;;26.52;35.40;101512.66;4929285;29;20463;-65
2022/04/26 10:23:50;;;;;;;9.57;5.53;;;;;;;26.37;34.97;101508.50;4935976;29;20047;-64
2022/04/26 10:26:22;;;;;;;8.27;5.30;;;;;;;26.22;35.74;101517.00;4936108;29;20040;-65
2022/04/26 10:28:57;;;;;;;13.53;5.73;;;;;;;26.14;35.67;101514.47;4935929;29;20075;-65
2022/04/26 10:31:49;;;;;;;9.15;5.53;;;;;;;25.69;35.96;101516.19;4936079;29;20292;-65
2022/04/26 10:34:15;;;;;;;8.90;5.45;;;;;;;25.27;36.34;101533.00;4933707;29;20432;-65
2022/04/26 10:36:40;;;;;;;8.52;5.07;;;;;;;25.02;36.48;101526.38;4936090;29;20031;-64
2022/04/26 10:39:06;;;;;;;9.02;5.07;;;;;;;25.08;35.50;101522.81;4920343;29;20028;-65
2022/04/26 10:41:35;;;;;;;7.63;4.45;;;;;;;24.88;35.83;101518.13;4936149;29;20050;-64
2022/04/26 10:44:13;;;;;;;9.02;5.07;;;;;;;24.62;35.98;101534.41;4935737;29;20038;-65
2022/04/26 10:46:58;;;;;;;9.82;4.75;;;;;;;24.56;35.44;101529.78;4935720;29;20035;-66
2022/04/26 10:49:40;;;;;;;9.68;5.10;;;;;;;24.40;36.25;101532.00;4935891;29;20047;-65
2022/04/26 10:52:09;;;;;;;7.20;4.57;;;;;;;24.27;35.02;101536.34;4935780;29;20038;-65
2022/04/26 10:54:58;;;;;;;9.18;4.70;;;;;;;24.54;35.09;101542.81;4958874;28;20042;-64
2022/04/26 10:57:28;;;;;;;6.45;5.20;;;;;;;24.41;35.88;101548.22;5014997;28;20109;-65
2022/04/26 11:00:11;;;;;;;7.97;4.60;;;;;;;24.40;35.46;101538.31;4997607;28;20068;-64
2022/04/26 11:02:39;;;;;;;7.05;4.65;;;;;;;24.14;35.54;101551.84;5015204;28;20475;-65
2022/04/26 11:05:10;;;;;;;10.25;5.63;;;;;;;23.86;36.11;101553.72;5019536;28;20486;-64
2022/04/26 11:07:37;;;;;;;7.57;4.80;;;;;;;23.58;36.41;101545.47;5035227;28;20029;-65
2022/04/26 11:10:04;;;;;;;12.10;5.53;;;;;;;23.36;36.55;101550.06;5034702;28;20021;-65
2022/04/26 11:12:34;;;;;;;6.93;4.43;;;;;;;23.22;35.76;101550.97;5034763;28;20025;-65
2022/04/26 11:15:19;;;;;;;10.75;5.38;;;;;;;23.11;36.22;101556.97;5034450;28;20168;-64
2022/04/26 11:17:45;;;;;;;7.63;5.72;;;;;;;23.39;35.25;101563.41;5016967;28;20045;-65
2022/04/26 11:20:13;;;;;;;7.38;5.32;;;;;;;23.23;36.12;101569.06;5034390;28;20128;-64
2022/04/26 11:22:52;;;;;;;7.72;4.50;;;;;;;22.98;36.63;101570.44;5016787;28;20054;-65
2022/04/26 11:28:06;;;;;;;7.63;4.88;;;;;;;22.60;36.71;101578.78;5032930;28;20461;-65
2022/04/26 11:30:45;;;;;;;10.10;5.47;;;;;;;22.43;36.53;101574.53;5034227;28;20026;-64
2022/04/26 11:33:11;;;;;;;6.25;4.57;;;;;;;22.29;36.37;101583.56;5033849;28;20033;-65
2022/04/26 11:35:37;;;;;;;8.90;5.07;;;;;;;22.19;36.27;101585.72;5034462;28;20060;-64
2022/04/26 11:38:08;;;;;;;10.30;4.85;;;;;;;22.12;36.47;101582.03;5034474;28;20017;-65
2022/04/26 11:40:40;;;;;;;12.13;4.68;;;;;;;22.05;36.71;101589.28;5034023;28;20035;-65
2022/04/26 11:43:14;;;;;;;10.30;5.05;;;;;;;21.98;36.46;101585.56;5034070;28;20091;-65
2022/04/26 11:45:47;;;;;;;13.82;5.63;;;;;;;21.99;35.92;101595.47;5034412;28;20029;-64
2022/04/26 11:48:26;;;;;;;8.60;4.88;;;;;;;21.96;36.60;101595.84;5034308;28;20479;-65
2022/04/26 11:50:53;;;;;;;10.30;4.68;;;;;;;21.91;35.78;101592.81;5034658;28;20117;-65
2022/04/26 11:53:24;;;;;;;7.65;4.20;;;;;;;21.87;35.98;101595.06;5034476;28;20087;-65
2022/04/26 11:56:01;;;;;;;7.28;4.35;;;;;;;21.93;36.17;101597.06;5016626;28;20124;-65
2022/04/26 11:58:26;;;;;;;9.52;4.18;;;;;;;21.97;35.30;101605.72;5033235;28;20026;-64
2022/04/26 12:01:11;;;;;;;9.82;5.25;;;;;;;22.08;35.70;101599.84;5016495;28;20037;-65
2022/04/26 12:03:45;;;;;;;10.43;4.75;;;;;;;22.21;35.85;101600.03;5034021;28;20060;-65
2022/04/26 12:06:12;;;;;;;11.32;5.05;;;;;;;22.34;35.97;101605.69;5033941;28;20368;-65
2022/04/26 12:08:42;;;;;;;15.60;5.07;;;;;;;22.79;34.62;101609.31;5033096;28;20033;-65
2022/04/26 12:11:17;;;;;;;12.43;4.38;;;;;;;23.09;35.31;101610.94;5017545;28;20041;-65
2022/04/26 12:13:43;;;;;;;9.55;4.90;;;;;;;23.31;35.14;101607.22;5034133;28;20033;-64
2022/04/26 12:16:21;;;;;;;8.05;4.80;;;;;;;23.58;34.32;101597.44;5034514;28;20026;-64
2022/04/26 12:18:57;;;;;;;7.30;4.05;;;;;;;23.69;34.82;101603.25;5034418;28;20071;-64
2022/04/26 12:21:26;;;;;;;8.60;4.35;;;;;;;23.80;34.40;101598.28;5034432;28;20053;-65
2022/04/26 12:24:13;;;;;;;4.88;4.32;;;;;;;23.84;34.48;101602.34;5033450;28;20022;-64
2022/04/26 12:27:00;;;;;;;12.75;4.90;;;;;;;23.91;34.68;101597.75;5031439;28;20029;-65
2022/04/26 12:29:40;;;;;;;13.32;5.43;;;;;;;23.99;34.00;101594.88;5033573;28;20057;-65
2022/04/26 12:32:13;;;;;;;6.65;4.15;;;;;;;24.06;34.24;101598.53;5033683;28;20076;-65
2022/04/26 12:34:57;;;;;;;;;;;;;;;24.05;34.68;101597.66;5034099;28;20033;-65
2022/04/26 12:37:27;;;;;;;7.03;4.30;;;;;;;24.02;34.02;101602.69;5033596;28;19916;-65
2022/04/26 12:40:00;;;;;;;6.95;5.07;;;;;;;24.06;33.83;101598.53;5033868;28;20026;-65
2022/04/26 12:42:29;;;;;;;9.27;4.35;;;;;;;24.52;33.56;101593.38;5033361;28;20443;-65
2022/04/26 12:45:01;;;;;;;7.38;3.92;;;;;;;24.69;33.45;101595.59;5035465;28;20032;-64
2022/04/26 12:50:28;;;;;;;8.23;4.07;;;;;;;24.55;33.95;101602.06;5038294;28;20543;-65
2022/04/26 12:52:56;;;;;;;7.80;4.55;;;;;;;24.40;33.01;101600.50;5037856;28;20082;-65
2022/04/26 12:55:27;;;;;;;9.85;4.90;;;;;;;24.36;32.98;101593.72;5035618;28;20056;-65
2022/04/26 12:57:54;;;;;;;8.45;4.72;;;;;;;24.95;32.84;101594.06;5053474;28;20429;-64
2022/04/26 13:00:21;;;;;;;11.07;4.95;;;;;;;25.11;32.73;101594.56;5035543;28;20029;-65
2022/04/26 13:02:56;;;;;;;7.40;4.38;;;;;;;25.01;32.53;101599.59;5053130;28;20056;-65
2022/04/26 13:05:21;;;;;;;7.75;4.72;;;;;;;24.90;32.63;101598.25;5028935;28;20504;-66
2022/04/26 13:07:47;;;;;;;8.50;4.32;;;;;;;24.82;33.15;101603.91;5033309;28;20057;-65
2022/04/26 13:10:15;;;;;;;6.57;4.20;;;;;;;24.73;33.31;101596.06;5033394;28;20074;-65
2022/04/26 13:12:40;;;;;;;5.88;3.75;;;;;;;24.62;32.72;101602.94;5033305;28;20022;-65
2022/04/26 13:15:08;;;;;;;9.57;4.13;;;;;;;24.52;32.92;101604.34;5033336;28;20156;-65
2022/04/26 13:17:34;;;;;;;9.52;4.25;;;;;;;24.47;33.09;101604.09;5033531;28;20045;-65
2022/04/26 13:20:00;;;;;;;5.07;3.50;;;;;;;24.94;31.82;101604.19;5036073;28;20029;-65
2022/04/26 13:22:25;;;;;;;7.07;3.88;;;;;;;25.63;31.82;101599.34;5036534;28;20049;-65
2022/04/26 13:24:51;;;;;;;6.85;4.68;;;;;;;26.14;31.24;101591.38;5036622;28;20027;-65
2022/04/26 13:27:18;;;;;;;5.80;4.00;;;;;;;26.56;31.21;101587.31;5035312;28;20022;-65
2022/04/26 13:29:43;;;;;;;5.43;3.83;;;;;;;27.02;30.90;101590.78;5035816;28;20482;-65
2022/04/26 13:32:09;;;;;;;10.02;3.65;;;;;;;27.44;30.36;101588.47;5036192;28;20029;-65
2022/04/26 13:34:34;;;;;;;7.22;3.97;;;;;;;27.60;30.89;101577.78;5036263;28;20040;-65
2022/04/26 13:36:59;;;;;;;5.82;4.10;;;;;;;27.89;29.30;101584.50;5036273;28;20174;-65
2022/04/26 13:39:25;;;;;;;6.68;3.83;;;;;;;28.10;30.36;101586.06;5036113;28;20022;-65
2022/04/26 13:41:50;;;;;;;4.45;3.60;;;;;;;28.20;29.61;101578.97;5018553;28;20497;-64
2022/04/26 13:44:19;;;;;;;7.65;4.35;;;;;;;28.34;29.10;101570.59;5036140;28;20550;-65
2022/04/26 13:46:45;;;;;;;8.55;3.70;;;;;;;28.40;28.88;101572.41;5036147;28;20445;-65
2022/04/26 13:49:11;;;;;;;6.63;3.60;;;;;;;28.42;29.35;101575.81;5035752;28;20109;-65
2022/04/26 13:51:36;;;;;;;7.93;4.20;;;;;;;28.34;28.82;101568.66;5036144;28;20507;-65
2022/04/26 13:54:01;;;;;;;5.68;3.47;;;;;;;28.37;29.22;101565.44;5036128;28;20121;-65
2022/04/26 13:56:27;;;;;;;6.30;3.38;;;;;;;28.46;29.03;101568.75;5035672;28;20057;-65
2022/04/26 13:58:52;;;;;;;5.85;3.03;;;;;;;28.47;28.40;101570.44;5035996;28;20025;-65
2022/04/26 14:01:17;;;;;;;5.95;3.35;;;;;;;28.31;28.26;101574.63;5035971;28;20033;-65
2022/04/26 14:03:43;;;;;;;5.78;4.05;;;;;;;28.13;29.04;101569.94;5042155;28;20020;-64
2022/04/26 14:06:10;;;;;;;3.90;3.22;;;;;;;28.01;28.98;101568.94;5038108;28;20055;-65
2022/04/26 14:08:36;;;;;;;9.18;3.83;;;;;;;27.91;28.41;101568.63;5055621;28;20056;-65
2022/04/26 14:11:02;;;;;;;5.97;3.45;;;;;;;27.82;28.62;101575.47;5055710;28;20051;-65
2022/04/26 14:13:27;;;;;;;8.20;3.80;;;;;;;27.73;28.99;101574.06;5055446;28;20024;-65
2022/04/26 14:24:07;;;;;;;6.28;3.90;;;;;;;27.05;29.69;101578.50;5034047;28;20414;-65
2022/04/26 14:26:34;;;;;;;7.53;3.78;;;;;;;26.90;29.57;101577.91;5035308;28;20033;-65
2022/04/26 14:28:59;;;;;;;6.53;3.15;;;;;;;26.77;29.15;101581.53;5035182;28;20013;-65
2022/04/26 14:31:25;;;;;;;4.75;3.40;;;;;;;26.64;29.61;101576.06;5034692;28;20041;-65
2022/04/26 14:33:50;;;;;;;6.53;3.47;;;;;;;26.46;29.72;101589.66;5035083;28;20061;-65
2022/04/26 14:36:15;;;;;;;5.70;3.60;;;;;;;26.32;29.47;101588.00;5035523;28;20036;-65
2022/04/26 14:38:41;;;;;;;4.90;3.20;;;;;;;26.23;29.43;101581.88;5035201;28;20100;-65
2022/04/26 14:41:06;;;;;;;7.28;3.20;;;;;;;25.99;29.69;101585.25;5035026;28;20021;-64
2022/04/26 14:43:31;;;;;;;8.02;3.92;;;;;;;25.89;30.12;101582.91;5035018;28;20108;-65
2022/04/26 14:45:57;;;;;;;7.10;3.67;;;;;;;25.83;29.74;101578.25;5034816;28;20048;-64
2022/04/26 14:48:23;;;;;;;5.13;3.22;;;;;;;25.62;29.98;101589.44;5034908;28;20021;-65
2022/04/26 14:50:49;;;;;;;6.30;3.42;;;;;;;25.61;29.92;101589.66;5035184;28;20021;-65
2022/04/26 14:53:15;;;;;;;7.57;3.38;;;;;;;25.57;29.61;101591.97;5034856;28;20501;-65
2022/04/26 14:55:41;;;;;;;7.80;3.35;;;;;;;25.34;30.29;101596.97;5035147;28;20025;-64
2022/04/26 14:58:09;;;;;;;4.95;3.75;;;;;;;25.23;30.38;101597.56;5034976;28;20017;-64
2022/04/26 15:00:36;;;;;;;10.82;3.60;;;;;;;25.21;29.91;101594.19;5035147;28;20021;-65
2022/04/26 15:03:01;;;;;;;6.93;3.47;;;;;;;25.19;29.97;101588.03;5034898;28;20053;-65
2022/04/26 15:05:27;;;;;;;7.85;3.63;;;;;;;25.18;30.27;101583.63;5021066;28;20095;-65
2022/04/26 15:10:36;;;;;;;8.52;3.88;;;;;;;24.97;30.32;101589.22;5034826;28;20029;-65
2022/04/26 15:18:29;;;;;;;6.68;3.35;;;;;;;24.68;30.49;101593.91;5034448;28;20036;-65
2022/04/26 15:20:55;;;;;;;6.10;3.90;;;;;;;24.61;30.23;101592.19;5035149;28;20033;-65
2022/04/26 15:23:21;;;;;;;7.15;3.42;;;;;;;24.49;31.07;101597.38;5034308;28;20046;-65
2022/04/26 15:25:55;;;;;;;9.13;3.33;;;;;;;24.37;30.83;101593.53;5034748;28;20048;-64
2022/04/26 15:28:21;;;;;;;5.50;3.33;;;;;;;24.29;30.56;101599.97;5034546;28;20025;-65
2022/04/26 15:30:48;;;;;;;7.78;3.97;;;;;;;24.24;30.24;101593.41;5034429;28;20042;-65
2022/04/26 15:33:14;;;;;;;5.20;3.50;;;;;;;24.19;30.92;101593.16;5034350;28;20033;-64
2022/04/26 15:35:42;;;;;;;5.25;4.03;;;;;;;24.17;31.19;101595.28;5034549;28;20029;-65
2022/04/26 15:38:10;;;;;;;6.45;3.63;;;;;;;24.13;30.52;101596.69;5016879;28;20029;-66